createdAt,value
2018-10-06T00:00:49.716Z,0
2018-10-06T00:01:49.732Z,0
2018-10-06T00:02:50.010Z,0
2018-10-06T00:03:50.031Z,0
2018-10-06T00:04:50.050Z,0
2018-10-06T00:05:49.549Z,0
2018-10-06T00:06:49.834Z,0
2018-10-06T00:07:50.130Z,0
2018-10-06T00:08:49.861Z,0
2018-10-06T00:09:50.142Z,0
2018-10-06T00:10:49.652Z,0
2018-10-06T00:11:49.665Z,0
2018-10-06T00:12:50.196Z,0
2018-10-06T00:13:49.955Z,0
2018-10-06T00:14:49.717Z,0
2018-10-06T00:15:50.251Z,0
2018-10-06T00:16:50.010Z,0
2018-10-06T00:18:04.950Z,0
2018-10-06T00:18:49.834Z,0
2018-10-06T00:20:04.729Z,0
2018-10-06T00:20:50.440Z,0
2018-10-06T00:21:50.106Z,0
2018-10-06T00:22:50.380Z,0
2018-10-06T00:24:50.418Z,0
2018-10-06T00:26:05.099Z,0
2018-10-06T00:27:05.116Z,0
2018-10-06T00:27:50.222Z,0
2018-10-06T00:28:50.501Z,0
2018-10-06T00:29:50.257Z,0
2018-10-06T00:30:50.530Z,0
2018-10-06T00:31:50.083Z,0
2018-10-06T00:32:50.566Z,0
2018-10-06T00:34:04.729Z,0
2018-10-06T00:34:50.088Z,0
2018-10-06T00:35:50.617Z,0
2018-10-06T00:36:50.391Z,0
2018-10-06T00:37:50.401Z,0
2018-10-06T00:38:50.674Z,0
2018-10-06T00:40:05.101Z,0
2018-10-06T00:40:50.717Z,0
2018-10-06T00:41:50.480Z,0
2018-10-06T00:42:50.598Z,0
2018-10-06T00:44:50.530Z,0
2018-10-06T00:45:50.551Z,0
2018-10-06T00:46:50.565Z,0
2018-10-06T00:47:50.842Z,0
2018-10-06T00:48:50.600Z,0
2018-10-06T00:50:05.542Z,0
2018-10-06T00:50:50.650Z,0
2018-10-06T00:52:05.575Z,0
2018-10-06T00:53:50.702Z,0
2018-10-06T00:54:50.971Z,0
2018-10-06T00:56:51.007Z,0
2018-10-06T00:57:51.039Z,0
2018-10-06T00:59:05.806Z,0
2018-10-06T01:00:05.464Z,0
2018-10-06T01:00:51.076Z,0
2018-10-06T01:01:51.101Z,0
2018-10-06T01:03:50.886Z,0
2018-10-06T01:05:05.817Z,0
2018-10-06T01:06:05.831Z,0
2018-10-06T01:06:50.934Z,0
2018-10-06T01:08:51.225Z,0
2018-10-06T01:09:51.277Z,0
2018-10-06T01:10:51.268Z,0
2018-10-06T01:11:51.292Z,0
2018-10-06T01:12:51.310Z,0
2018-10-06T01:14:05.722Z,0
2018-10-06T01:14:51.337Z,0
2018-10-06T01:16:05.756Z,0
2018-10-06T01:16:51.123Z,0
2018-10-06T01:18:05.801Z,0
2018-10-06T01:18:51.151Z,0
2018-10-06T01:19:51.175Z,0
2018-10-06T01:21:05.849Z,0
2018-10-06T01:21:51.469Z,0
2018-10-06T01:22:51.487Z,0
2018-10-06T01:23:51.249Z,0
2018-10-06T01:25:05.922Z,0
2018-10-06T01:25:51.279Z,0
2018-10-06T01:26:51.297Z,0
2018-10-06T01:27:51.579Z,0
2018-10-06T01:29:06.257Z,0
2018-10-06T01:29:51.616Z,0
2018-10-06T01:31:06.299Z,0
2018-10-06T01:31:51.649Z,0
2018-10-06T01:32:51.670Z,0
2018-10-06T01:34:06.349Z,0
2018-10-06T01:34:51.700Z,0
2018-10-06T01:35:51.461Z,0
2018-10-06T01:36:51.484Z,0
2018-10-06T01:38:06.418Z,0
2018-10-06T01:39:06.436Z,0
2018-10-06T01:40:51.812Z,0
2018-10-06T01:41:51.834Z,0
2018-10-06T01:42:51.599Z,0
2018-10-06T01:43:51.866Z,0
2018-10-06T01:44:51.881Z,0
2018-10-06T01:45:51.643Z,0
2018-10-06T01:46:51.920Z,0
2018-10-06T01:47:51.942Z,0
2018-10-06T01:49:06.622Z,0
2018-10-06T01:49:52.150Z,0
2018-10-06T01:50:52.060Z,0
2018-10-06T01:51:52.068Z,0
2018-10-06T01:53:06.433Z,0
2018-10-06T01:53:52.061Z,0
2018-10-06T01:54:52.117Z,0
2018-10-06T01:55:51.567Z,0
2018-10-06T01:56:52.104Z,0
2018-10-06T01:57:51.861Z,0
2018-10-06T02:00:06.819Z,0
2018-10-06T02:00:51.915Z,0
2018-10-06T02:01:52.195Z,0
2018-10-06T02:02:51.956Z,0
2018-10-06T02:03:51.973Z,0
2018-10-06T02:04:52.248Z,0
2018-10-06T02:05:52.012Z,0
2018-10-06T02:06:52.024Z,0
2018-10-06T02:07:52.308Z,0
2018-10-06T02:09:07.040Z,0
2018-10-06T02:09:52.081Z,0
2018-10-06T02:10:52.360Z,0
2018-10-06T02:11:52.114Z,0
2018-10-06T02:12:52.137Z,0
2018-10-06T02:13:52.414Z,0
2018-10-06T02:14:51.653Z,0
2018-10-06T02:17:07.123Z,0
2018-10-06T02:18:52.245Z,0
2018-10-06T02:19:52.522Z,0
2018-10-06T02:20:52.537Z,0
2018-10-06T02:21:52.296Z,0
2018-10-06T02:22:52.318Z,0
2018-10-06T02:23:52.587Z,0
2018-10-06T02:25:07.014Z,0
2018-10-06T02:25:52.622Z,0
2018-10-06T02:26:52.653Z,0
2018-10-06T02:27:52.672Z,0
2018-10-06T02:28:52.680Z,0
2018-10-06T02:29:52.737Z,0
2018-10-06T02:30:52.718Z,0
2018-10-06T02:32:52.754Z,0
2018-10-06T02:33:52.777Z,0
2018-10-06T02:34:52.541Z,0
2018-10-06T02:35:52.810Z,0
2018-10-06T02:37:52.850Z,0
2018-10-06T02:38:52.603Z,0
2018-10-06T02:39:52.884Z,0
2018-10-06T02:41:07.555Z,0
2018-10-06T02:42:52.937Z,0
2018-10-06T02:43:52.955Z,0
2018-10-06T02:44:52.967Z,0
2018-10-06T02:45:52.729Z,0
2018-10-06T02:46:53.013Z,0
2018-10-06T02:47:53.026Z,0
2018-10-06T02:48:52.787Z,0
2018-10-06T02:49:52.798Z,0
2018-10-06T02:51:07.736Z,0
2018-10-06T02:51:53.089Z,0
2018-10-06T02:52:53.120Z,0
2018-10-06T02:53:53.127Z,0
2018-10-06T02:54:53.156Z,0
2018-10-06T02:56:07.825Z,0
2018-10-06T02:57:07.841Z,0
2018-10-06T02:57:53.197Z,0
2018-10-06T02:58:53.220Z,0
2018-10-06T02:59:52.998Z,0
2018-10-06T03:00:53.307Z,0
2018-10-06T03:01:53.021Z,0
2018-10-06T03:02:53.291Z,0
2018-10-06T03:03:53.049Z,0
2018-10-06T03:04:53.064Z,0
2018-10-06T03:05:53.352Z,0
2018-10-06T03:07:07.777Z,0
2018-10-06T03:07:53.379Z,0
2018-10-06T03:09:53.620Z,0
2018-10-06T03:10:53.432Z,0
2018-10-06T03:13:08.128Z,0
2018-10-06T03:13:53.587Z,0
2018-10-06T03:14:53.505Z,0
2018-10-06T03:15:53.529Z,0
2018-10-06T03:16:53.596Z,0
2018-10-06T03:17:53.312Z,0
2018-10-06T03:18:53.573Z,0
2018-10-06T03:19:53.592Z,0
2018-10-06T03:20:53.608Z,0
2018-10-06T03:22:08.033Z,0
2018-10-06T03:22:53.129Z,0
2018-10-06T03:24:53.681Z,0
2018-10-06T03:25:53.701Z,0
2018-10-06T03:26:53.728Z,0
2018-10-06T03:28:08.395Z,0
2018-10-06T03:28:53.247Z,0
2018-10-06T03:29:53.514Z,0
2018-10-06T03:30:53.538Z,0
2018-10-06T03:31:53.819Z,0
2018-10-06T03:32:53.824Z,0
2018-10-06T03:34:53.938Z,0
2018-10-06T03:35:53.877Z,0
2018-10-06T03:37:08.553Z,0
2018-10-06T03:37:53.925Z,0
2018-10-06T03:38:53.934Z,0
2018-10-06T03:39:53.956Z,0
2018-10-06T03:40:54.020Z,0
2018-10-06T03:41:53.739Z,0
2018-10-06T03:42:53.742Z,0
2018-10-06T03:44:08.433Z,0
2018-10-06T03:44:53.779Z,0
2018-10-06T03:46:08.713Z,0
2018-10-06T03:47:08.473Z,0
2018-10-06T03:47:54.096Z,0
2018-10-06T03:48:54.111Z,0
2018-10-06T03:49:54.125Z,0
2018-10-06T03:50:54.146Z,0
2018-10-06T03:51:54.159Z,0
2018-10-06T03:53:08.838Z,0
2018-10-06T03:53:54.377Z,0
2018-10-06T03:54:54.217Z,0
2018-10-06T03:55:53.458Z,0
2018-10-06T03:56:54.251Z,0
2018-10-06T03:57:54.272Z,0
2018-10-06T03:59:08.945Z,0
2018-10-06T04:00:08.966Z,0
2018-10-06T04:01:54.332Z,0
2018-10-06T04:02:54.362Z,0
2018-10-06T04:03:54.115Z,0
2018-10-06T04:05:54.156Z,0
2018-10-06T04:06:54.432Z,0
2018-10-06T04:08:09.105Z,0
2018-10-06T04:08:54.467Z,0
2018-10-06T04:09:54.218Z,0
2018-10-06T04:10:54.606Z,0
2018-10-06T04:11:54.523Z,0
2018-10-06T04:12:54.532Z,0
2018-10-06T04:13:54.544Z,0
2018-10-06T04:14:54.309Z,0
2018-10-06T04:16:54.623Z,0
2018-10-06T04:17:54.630Z,0
2018-10-06T04:19:09.317Z,0
2018-10-06T04:20:09.054Z,0
2018-10-06T04:20:54.680Z,0
2018-10-06T04:21:54.438Z,0
2018-10-06T04:22:54.705Z,0
2018-10-06T04:23:54.727Z,0
2018-10-06T04:24:54.492Z,0
2018-10-06T04:25:54.766Z,0
2018-10-06T04:26:54.831Z,0
2018-10-06T04:27:54.364Z,0
2018-10-06T04:28:54.833Z,0
2018-10-06T04:29:54.317Z,0
2018-10-06T04:31:09.248Z,0
2018-10-06T04:31:54.870Z,0
2018-10-06T04:32:54.627Z,0
2018-10-06T04:33:54.905Z,0
2018-10-06T04:35:54.683Z,0
2018-10-06T04:36:54.959Z,4
2018-10-06T04:38:09.641Z,4
2018-10-06T04:38:54.733Z,0
2018-10-06T04:39:55.103Z,4
2018-10-06T04:40:55.027Z,4
2018-10-06T04:42:09.456Z,4
2018-10-06T04:43:09.724Z,4
2018-10-06T04:43:54.559Z,4
2018-10-06T04:44:55.097Z,4
2018-10-06T04:45:55.118Z,8
2018-10-06T04:46:55.133Z,8
2018-10-06T04:47:55.143Z,12
2018-10-06T04:49:55.183Z,16
2018-10-06T04:50:55.208Z,20
2018-10-06T04:51:55.218Z,24
2018-10-06T04:52:55.241Z,28
2018-10-06T04:54:09.912Z,40
2018-10-06T04:54:55.274Z,40
2018-10-06T04:55:55.288Z,48
2018-10-06T04:57:09.726Z,56
2018-10-06T04:57:55.325Z,64
2018-10-06T04:58:55.334Z,76
2018-10-06T04:59:55.358Z,88
2018-10-06T05:01:10.049Z,104
2018-10-06T05:01:55.392Z,116
2018-10-06T05:03:10.111Z,132
2018-10-06T05:03:55.183Z,148
2018-10-06T05:05:10.102Z,168
2018-10-06T05:05:55.459Z,188
2018-10-06T05:06:55.223Z,208
2018-10-06T05:07:55.497Z,232
2018-10-06T05:08:55.511Z,252
2018-10-06T05:09:55.531Z,284
2018-10-06T05:11:55.049Z,340
2018-10-06T05:13:09.986Z,380
2018-10-06T05:13:55.342Z,408
2018-10-06T05:14:55.366Z,440
2018-10-06T05:15:55.656Z,480
2018-10-06T05:16:55.136Z,520
2018-10-06T05:17:55.674Z,564
2018-10-06T05:19:10.090Z,616
2018-10-06T05:19:55.713Z,652
2018-10-06T05:20:55.722Z,700
2018-10-06T05:21:55.742Z,752
2018-10-06T05:22:55.765Z,808
2018-10-06T05:23:55.786Z,856
2018-10-06T05:24:55.801Z,916
2018-10-06T05:26:10.482Z,992
2018-10-06T05:26:55.308Z,1040
2018-10-06T05:27:55.844Z,1104
2018-10-06T05:28:55.866Z,1172
2018-10-06T05:29:55.900Z,1236
2018-10-06T05:30:55.902Z,1300
2018-10-06T05:31:55.400Z,1380
2018-10-06T05:33:10.611Z,1488
2018-10-06T05:33:56.115Z,1552
2018-10-06T05:35:10.369Z,1652
2018-10-06T05:35:55.982Z,1712
2018-10-06T05:36:55.753Z,1788
2018-10-06T05:37:56.025Z,1868
2018-10-06T05:38:56.037Z,1952
2018-10-06T05:39:56.069Z,2040
2018-10-06T05:40:56.075Z,2128
2018-10-06T05:41:56.098Z,2220
2018-10-06T05:42:55.851Z,2312
2018-10-06T05:43:55.608Z,2416
2018-10-06T05:44:55.630Z,2548
2018-10-06T05:45:56.160Z,2636
2018-10-06T05:46:56.194Z,2704
2018-10-06T05:47:56.209Z,2804
2018-10-06T05:48:56.215Z,2916
2018-10-06T05:49:55.766Z,3020
2018-10-06T05:51:10.911Z,3136
2018-10-06T05:51:56.267Z,3212
2018-10-06T05:52:56.288Z,3312
2018-10-06T05:53:56.044Z,3412
2018-10-06T05:54:56.334Z,3524
2018-10-06T05:55:56.090Z,3652
2018-10-06T05:56:56.094Z,3876
2018-10-06T05:59:11.190Z,12468
2018-10-06T05:59:56.178Z,22464
2018-10-06T06:00:56.432Z,27808
2018-10-06T06:02:10.853Z,29056
2018-10-06T06:02:56.462Z,27968
2018-10-06T06:03:56.481Z,27712
2018-10-06T06:04:56.500Z,27424
2018-10-06T06:06:11.285Z,28800
2018-10-06T06:07:11.208Z,28640
2018-10-06T06:07:56.565Z,29056
2018-10-06T06:08:56.065Z,30816
2018-10-06T06:09:56.907Z,29888
2018-10-06T06:10:56.359Z,27616
2018-10-06T06:11:56.388Z,30016
2018-10-06T06:12:56.663Z,34496
2018-10-06T06:14:11.348Z,36800
2018-10-06T06:15:11.365Z,37408
2018-10-06T06:16:11.430Z,37184
2018-10-06T06:16:56.499Z,38368
2018-10-06T06:17:56.773Z,39968
2018-10-06T06:18:56.537Z,40672
2018-10-06T06:19:56.821Z,42112
2018-10-06T06:20:56.840Z,41888
2018-10-06T06:21:56.869Z,42752
2018-10-06T06:22:56.697Z,43552
2018-10-06T06:23:57.158Z,44928
2018-10-06T06:24:56.678Z,43392
2018-10-06T06:25:56.959Z,42592
2018-10-06T06:26:56.988Z,43616
2018-10-06T06:27:57.010Z,43808
2018-10-06T06:28:57.030Z,44576
2018-10-06T06:29:57.055Z,45184
2018-10-06T06:30:56.984Z,46176
2018-10-06T06:32:11.605Z,47040
2018-10-06T06:32:57.133Z,46816
2018-10-06T06:33:57.156Z,46112
2018-10-06T06:34:57.180Z,45056
2018-10-06T06:35:56.945Z,47296
2018-10-06T06:36:56.965Z,48864
2018-10-06T06:38:11.782Z,48000
2018-10-06T06:38:57.295Z,46688
2018-10-06T06:39:57.308Z,48320
2018-10-06T06:40:57.070Z,48480
2018-10-06T06:41:56.837Z,49568
2018-10-06T06:42:57.431Z,49632
2018-10-06T06:43:57.278Z,49760
2018-10-06T06:44:57.431Z,49440
2018-10-06T06:45:57.522Z,49632
2018-10-06T06:47:57.557Z,48992
2018-10-06T06:48:57.271Z,52128
2018-10-06T06:49:57.566Z,50624
2018-10-06T06:50:57.584Z,48864
2018-10-06T06:51:57.612Z,51168
2018-10-06T06:52:57.638Z,50784
2018-10-06T06:54:12.327Z,50656
2018-10-06T06:55:12.484Z,50464
2018-10-06T06:56:12.381Z,51136
2018-10-06T06:56:57.761Z,53056
2018-10-06T06:57:57.514Z,51776
2018-10-06T06:58:57.646Z,51168
2018-10-06T06:59:57.570Z,50656
2018-10-06T07:00:57.952Z,52352
2018-10-06T07:01:57.891Z,52512
2018-10-06T07:03:12.571Z,54016
2018-10-06T07:03:57.423Z,54880
2018-10-06T07:04:57.707Z,54080
2018-10-06T07:05:57.895Z,50144
2018-10-06T07:06:58.012Z,52768
2018-10-06T07:07:58.340Z,48544
2018-10-06T07:08:57.811Z,50656
2018-10-06T07:10:12.757Z,50848
2018-10-06T07:10:58.129Z,52800
2018-10-06T07:11:57.894Z,54208
2018-10-06T07:12:58.179Z,51168
2018-10-06T07:13:58.204Z,52864
2018-10-06T07:15:12.379Z,55808
2018-10-06T07:15:58.005Z,55648
2018-10-06T07:16:58.031Z,54816
2018-10-06T07:17:58.308Z,54976
2018-10-06T07:18:58.081Z,54528
2018-10-06T07:19:58.104Z,53440
2018-10-06T07:20:58.237Z,52608
2018-10-06T07:21:58.416Z,38304
2018-10-06T07:22:58.187Z,51968
2018-10-06T07:23:58.212Z,56288
2018-10-06T07:24:58.502Z,56352
2018-10-06T07:26:13.191Z,56000
2018-10-06T07:26:58.553Z,56160
2018-10-06T07:28:13.237Z,49152
2018-10-06T07:28:58.601Z,50336
2018-10-06T07:29:58.633Z,56832
2018-10-06T07:30:58.657Z,55072
2018-10-06T07:31:58.682Z,49728
2018-10-06T07:32:58.723Z,47680
2018-10-06T07:33:58.475Z,50688
2018-10-06T07:34:58.513Z,52064
2018-10-06T07:35:58.788Z,52256
2018-10-06T07:36:58.556Z,48480
2018-10-06T07:37:58.838Z,48544
2018-10-06T07:38:58.608Z,55264
2018-10-06T07:39:58.889Z,49440
2018-10-06T07:41:13.580Z,48448
2018-10-06T07:41:58.948Z,49952
2018-10-06T07:42:58.984Z,53440
2018-10-06T07:44:13.658Z,49536
2018-10-06T07:44:59.186Z,45664
2018-10-06T07:45:58.792Z,44256
2018-10-06T07:46:59.080Z,47296
2018-10-06T07:47:59.112Z,44320
2018-10-06T07:48:59.129Z,42464
2018-10-06T07:49:58.897Z,43712
2018-10-06T07:50:59.184Z,38432
2018-10-06T07:51:59.206Z,45248
2018-10-06T07:52:59.301Z,41600
2018-10-06T07:53:59.004Z,45088
2018-10-06T07:54:59.289Z,45984
2018-10-06T07:55:59.312Z,44640
2018-10-06T07:56:59.766Z,47392
2018-10-06T07:58:59.391Z,45472
2018-10-06T08:00:58.930Z,33856
2018-10-06T08:02:13.611Z,31616
2018-10-06T08:02:58.975Z,33024
2018-10-06T08:03:59.516Z,36864
2018-10-06T08:04:59.541Z,39840
2018-10-06T08:05:59.306Z,45472
2018-10-06T08:06:59.344Z,38848
2018-10-06T08:07:59.619Z,36064
2018-10-06T08:08:59.486Z,43360
2018-10-06T08:10:14.079Z,38432
2018-10-06T08:10:59.442Z,41664
2018-10-06T08:11:59.719Z,41920
2018-10-06T08:13:14.410Z,39296
2018-10-06T08:14:14.431Z,40928
2018-10-06T08:15:14.217Z,43712
2018-10-06T08:15:59.829Z,43744
2018-10-06T08:16:59.589Z,34944
2018-10-06T08:17:59.874Z,30112
2018-10-06T08:18:59.894Z,36064
2018-10-06T08:19:59.668Z,39616
2018-10-06T08:22:14.636Z,38656
2018-10-06T08:23:00.055Z,37120
2018-10-06T08:24:00.040Z,38400
2018-10-06T08:25:00.056Z,37184
2018-10-06T08:25:59.558Z,31456
2018-10-06T08:26:59.843Z,31904
2018-10-06T08:28:00.128Z,32736
2018-10-06T08:29:14.819Z,32192
2018-10-06T08:30:00.176Z,33888
2018-10-06T08:30:59.943Z,29088
2018-10-06T08:31:59.973Z,27616
2018-10-06T08:33:00.255Z,31232
2018-10-06T08:34:00.278Z,30944
2018-10-06T08:35:00.404Z,25664
2018-10-06T08:37:00.097Z,25312
2018-10-06T08:38:00.379Z,24736
2018-10-06T08:39:00.404Z,24512
2018-10-06T08:39:59.918Z,22912
2018-10-06T08:41:15.130Z,25408
2018-10-06T08:42:00.482Z,27424
2018-10-06T08:43:15.029Z,26528
2018-10-06T08:44:00.279Z,20640
2018-10-06T08:45:15.220Z,25088
2018-10-06T08:46:00.329Z,24672
2018-10-06T08:47:00.612Z,26688
2018-10-06T08:48:00.634Z,26272
2018-10-06T08:49:15.327Z,25344
2018-10-06T08:50:00.891Z,24640
2018-10-06T08:51:00.721Z,23872
2018-10-06T08:52:00.483Z,23040
2018-10-06T08:53:00.252Z,22944
2018-10-06T08:54:00.785Z,23264
2018-10-06T08:55:00.821Z,20832
2018-10-06T08:56:01.257Z,19008
2018-10-06T08:57:00.605Z,21536
2018-10-06T08:58:00.892Z,19968
2018-10-06T08:59:00.918Z,19616
2018-10-06T09:01:15.630Z,20096
2018-10-06T09:02:00.990Z,19776
2018-10-06T09:03:01.042Z,18560
2018-10-06T09:04:00.791Z,17728
2018-10-06T09:05:01.078Z,18560
2018-10-06T09:06:01.107Z,18720
2018-10-06T09:07:01.120Z,16128
2018-10-06T09:08:00.894Z,14828
2018-10-06T09:09:01.174Z,13820
2018-10-06T09:10:15.857Z,16268
2018-10-06T09:11:01.599Z,15460
2018-10-06T09:12:01.254Z,15872
2018-10-06T09:13:01.023Z,15108
2018-10-06T09:14:01.307Z,16344
2018-10-06T09:15:01.324Z,16668
2018-10-06T09:16:15.755Z,16768
2018-10-06T09:18:01.754Z,17568
2018-10-06T09:19:01.501Z,14660
2018-10-06T09:20:16.120Z,15888
2018-10-06T09:21:01.586Z,16668
2018-10-06T09:22:01.506Z,17056
2018-10-06T09:23:01.535Z,18080
2018-10-06T09:24:16.222Z,17600
2018-10-06T09:25:01.324Z,17376
2018-10-06T09:26:01.606Z,17472
2018-10-06T09:27:01.633Z,17344
2018-10-06T09:28:01.665Z,16744
2018-10-06T09:29:01.683Z,16848
2018-10-06T09:30:01.459Z,16296
2018-10-06T09:31:01.737Z,16536
2018-10-06T09:32:01.760Z,16720
2018-10-06T09:33:01.784Z,16624
2018-10-06T09:34:01.560Z,16516
2018-10-06T09:35:01.624Z,16452
2018-10-06T09:36:01.867Z,16768
2018-10-06T09:38:01.920Z,17024
2018-10-06T09:39:01.717Z,17024
2018-10-06T09:40:01.970Z,17024
2018-10-06T09:41:01.990Z,16928
2018-10-06T09:42:02.785Z,16736
2018-10-06T09:43:02.307Z,16768
2018-10-06T09:44:01.815Z,16468
2018-10-06T09:45:16.762Z,15712
2018-10-06T09:46:02.121Z,15788
2018-10-06T09:47:02.151Z,14312
2018-10-06T09:48:17.224Z,15572
2018-10-06T09:49:01.694Z,15084
2018-10-06T09:50:16.890Z,13508
2018-10-06T09:51:01.477Z,13244
2018-10-06T09:52:02.019Z,14960
2018-10-06T09:53:02.044Z,14616
2018-10-06T09:54:02.334Z,14768
2018-10-06T09:55:02.100Z,13952
2018-10-06T09:57:02.516Z,15096
2018-10-06T09:58:02.434Z,15192
2018-10-06T09:59:02.460Z,15132
2018-10-06T10:00:02.491Z,14868
2018-10-06T10:01:02.512Z,14916
2018-10-06T10:02:02.280Z,14648
2018-10-06T10:04:17.249Z,14244
2018-10-06T10:05:17.334Z,14068
2018-10-06T10:06:02.916Z,14112
2018-10-06T10:07:02.446Z,14040
2018-10-06T10:08:02.698Z,13652
2018-10-06T10:09:16.865Z,13360
2018-10-06T10:11:02.776Z,13176
2018-10-06T10:12:02.800Z,13140
2018-10-06T10:13:02.820Z,12912
2018-10-06T10:14:02.854Z,12668
2018-10-06T10:15:02.875Z,12528
2018-10-06T10:16:02.898Z,12452
2018-10-06T10:17:17.824Z,12172
2018-10-06T10:18:03.538Z,11884
2018-10-06T10:19:02.980Z,11356
2018-10-06T10:20:17.664Z,10900
2018-10-06T10:21:02.771Z,10652
2018-10-06T10:22:03.655Z,10224
2018-10-06T10:23:03.098Z,9912
2018-10-06T10:24:03.499Z,9532
2018-10-06T10:25:03.128Z,9220
2018-10-06T10:26:02.896Z,8588
2018-10-06T10:27:02.937Z,8284
2018-10-06T10:28:03.204Z,7776
2018-10-06T10:29:03.691Z,8132
2018-10-06T10:30:17.666Z,7524
2018-10-06T10:31:03.070Z,7392
2018-10-06T10:32:03.308Z,7508
2018-10-06T10:33:03.338Z,7380
2018-10-06T10:34:03.100Z,7184
2018-10-06T10:35:03.379Z,6916
2018-10-06T10:36:18.077Z,6712
2018-10-06T10:37:03.176Z,6552
2018-10-06T10:38:03.196Z,6280
2018-10-06T10:39:03.274Z,6220
2018-10-06T10:40:03.506Z,5984
2018-10-06T10:42:03.571Z,6072
2018-10-06T10:43:03.317Z,5912
2018-10-06T10:44:04.016Z,6124
2018-10-06T10:46:18.311Z,5976
2018-10-06T10:47:03.431Z,5884
2018-10-06T10:48:03.479Z,5464
2018-10-06T10:49:03.729Z,5580
2018-10-06T10:50:03.751Z,5728
2018-10-06T10:51:33.101Z,5748
2018-10-06T10:52:03.553Z,5800
2018-10-06T10:53:03.568Z,5896
2018-10-06T10:54:03.853Z,6008
2018-10-06T10:56:03.918Z,6052
2018-10-06T10:57:03.929Z,6108
2018-10-06T10:58:03.957Z,6116
2018-10-06T10:59:03.510Z,6144
2018-10-06T11:01:04.227Z,6152
2018-10-06T11:02:04.046Z,6228
2018-10-06T11:03:04.075Z,6368
2018-10-06T11:04:18.624Z,6332
2018-10-06T11:05:18.535Z,6296
2018-10-06T11:06:04.146Z,6224
2018-10-06T11:08:04.194Z,5776
2018-10-06T11:09:03.964Z,5640
2018-10-06T11:10:03.985Z,5584
2018-10-06T11:11:04.045Z,5588
2018-10-06T11:12:04.033Z,5664
2018-10-06T11:13:18.983Z,5868
2018-10-06T11:15:04.372Z,5952
2018-10-06T11:16:04.389Z,5932
2018-10-06T11:17:04.494Z,6072
2018-10-06T11:18:04.492Z,5884
2018-10-06T11:19:03.788Z,5872
2018-10-06T11:20:04.494Z,5908
2018-10-06T11:21:04.257Z,5744
2018-10-06T11:22:04.283Z,5956
2018-10-06T11:23:19.228Z,6080
2018-10-06T11:24:04.589Z,5988
2018-10-06T11:25:04.914Z,5836
2018-10-06T11:26:04.377Z,5812
2018-10-06T11:27:04.663Z,5760
2018-10-06T11:28:04.425Z,6072
2018-10-06T11:29:04.452Z,6072
2018-10-06T11:31:04.501Z,6300
2018-10-06T11:32:04.528Z,6668
2018-10-06T11:33:04.287Z,6800
2018-10-06T11:34:04.833Z,6888
2018-10-06T11:35:04.872Z,6996
2018-10-06T11:36:04.623Z,6892
2018-10-06T11:37:04.389Z,7176
2018-10-06T11:38:05.165Z,7388
2018-10-06T11:39:19.617Z,7384
2018-10-06T11:40:04.468Z,7364
2018-10-06T11:41:05.003Z,7252
2018-10-06T11:42:04.253Z,7304
2018-10-06T11:43:04.537Z,7168
2018-10-06T11:45:04.593Z,7016
2018-10-06T11:46:04.875Z,7016
2018-10-06T11:47:19.554Z,6968
2018-10-06T11:48:05.173Z,6944
2018-10-06T11:49:04.940Z,6992
2018-10-06T11:50:05.848Z,7080
2018-10-06T11:51:04.991Z,7056
2018-10-06T11:52:05.277Z,7064
2018-10-06T11:53:05.298Z,7148
2018-10-06T11:54:05.324Z,7124
2018-10-06T11:55:20.007Z,7236
2018-10-06T11:56:20.034Z,7396
2018-10-06T11:57:05.399Z,7412
2018-10-06T11:58:19.823Z,7536
2018-10-06T12:00:05.604Z,7396
2018-10-06T12:01:05.498Z,7300
2018-10-06T12:02:20.241Z,7452
2018-10-06T12:03:05.550Z,7368
2018-10-06T12:04:05.575Z,7420
2018-10-06T12:05:05.597Z,7256
2018-10-06T12:06:05.616Z,7208
2018-10-06T12:07:04.869Z,7140
2018-10-06T12:08:20.334Z,6892
2018-10-06T12:09:05.431Z,6916
2018-10-06T12:10:05.499Z,7016
2018-10-06T12:11:20.402Z,7068
2018-10-06T12:12:05.505Z,7088
2018-10-06T12:13:05.844Z,7244
2018-10-06T12:14:05.557Z,7308
2018-10-06T12:15:05.069Z,7380
2018-10-06T12:16:05.867Z,7440
2018-10-06T12:17:20.562Z,7520
2018-10-06T12:20:20.635Z,7476
2018-10-06T12:21:05.991Z,7576
2018-10-06T12:22:06.012Z,7600
2018-10-06T12:23:06.041Z,7600
2018-10-06T12:24:05.809Z,7472
2018-10-06T12:26:20.519Z,7468
2018-10-06T12:27:06.138Z,7576
2018-10-06T12:29:05.931Z,7716
2018-10-06T12:30:06.214Z,7796
2018-10-06T12:31:05.986Z,8052
2018-10-06T12:32:06.007Z,7988
2018-10-06T12:33:06.290Z,7928
2018-10-06T12:34:06.316Z,7932
2018-10-06T12:35:06.270Z,7988
2018-10-06T12:36:05.844Z,7944
2018-10-06T12:37:06.127Z,7880
2018-10-06T12:38:21.074Z,7708
2018-10-06T12:39:06.432Z,7736
2018-10-06T12:40:05.954Z,7656
2018-10-06T12:41:06.225Z,7516
2018-10-06T12:42:06.034Z,7352
2018-10-06T12:43:06.275Z,7296
2018-10-06T12:44:06.564Z,7100
2018-10-06T12:45:06.326Z,6964
2018-10-06T12:46:21.009Z,6680
2018-10-06T12:47:21.033Z,6460
2018-10-06T12:48:06.139Z,6264
2018-10-06T12:49:06.166Z,6180
2018-10-06T12:50:06.455Z,6312
2018-10-06T12:51:06.742Z,6212
2018-10-06T12:52:21.423Z,6104
2018-10-06T12:53:21.438Z,6136
2018-10-06T12:55:06.573Z,5888
2018-10-06T12:56:06.851Z,5980
2018-10-06T12:57:06.629Z,5952
2018-10-06T12:58:21.563Z,5820
2018-10-06T12:59:06.411Z,5776
2018-10-06T13:01:06.463Z,5724
2018-10-06T13:02:21.405Z,5656
2018-10-06T13:03:06.777Z,5660
2018-10-06T13:04:07.054Z,5568
2018-10-06T13:05:21.741Z,5572
2018-10-06T13:06:06.666Z,5460
2018-10-06T13:07:06.876Z,5460
2018-10-06T13:08:06.896Z,5416
2018-10-06T13:09:06.671Z,5488
2018-10-06T13:10:21.914Z,5440
2018-10-06T13:11:06.715Z,5424
2018-10-06T13:12:07.604Z,5436
2018-10-06T13:13:06.765Z,5456
2018-10-06T13:14:21.961Z,5416
2018-10-06T13:15:21.987Z,5420
2018-10-06T13:16:07.353Z,5396
2018-10-06T13:17:07.375Z,5420
2018-10-06T13:18:07.146Z,5400
2018-10-06T13:20:07.452Z,5428
2018-10-06T13:21:07.220Z,5448
2018-10-06T13:22:07.238Z,5416
2018-10-06T13:23:21.925Z,5408
2018-10-06T13:24:07.550Z,5456
2018-10-06T13:25:07.574Z,5392
2018-10-06T13:26:07.604Z,5360
2018-10-06T13:27:07.368Z,5364
2018-10-06T13:28:06.876Z,5340
2018-10-06T13:29:07.675Z,5428
2018-10-06T13:30:22.356Z,5420
2018-10-06T13:31:07.720Z,5528
2018-10-06T13:32:08.146Z,5484
2018-10-06T13:33:07.773Z,5356
2018-10-06T13:34:07.540Z,5420
2018-10-06T13:35:07.823Z,5416
2018-10-06T13:36:22.512Z,5280
2018-10-06T13:37:07.617Z,5360
2018-10-06T13:38:07.901Z,5436
2018-10-06T13:39:07.915Z,5444
2018-10-06T13:40:07.431Z,5508
2018-10-06T13:41:07.968Z,5388
2018-10-06T13:42:07.740Z,5360
2018-10-06T13:43:08.030Z,5424
2018-10-06T13:44:07.786Z,5216
2018-10-06T13:45:07.809Z,5228
2018-10-06T13:46:22.861Z,5580
2018-10-06T13:47:08.117Z,5532
2018-10-06T13:48:08.146Z,5612
2018-10-06T13:50:08.200Z,5460
2018-10-06T13:51:07.961Z,5480
2018-10-06T13:52:08.243Z,5404
2018-10-06T13:53:08.009Z,5256
2018-10-06T13:54:08.295Z,5296
2018-10-06T13:55:08.062Z,5436
2018-10-06T13:56:08.345Z,5556
2018-10-06T13:57:22.768Z,5592
2018-10-06T13:58:23.169Z,5688
2018-10-06T13:59:08.423Z,5696
2018-10-06T14:00:07.924Z,5636
2018-10-06T14:01:22.871Z,5672
2018-10-06T14:02:08.497Z,5664
2018-10-06T14:03:08.519Z,5556
2018-10-06T14:04:08.548Z,5604
2018-10-06T14:05:08.314Z,5544
2018-10-06T14:07:08.820Z,5516
2018-10-06T14:08:08.643Z,5592
2018-10-06T14:09:08.671Z,4800
2018-10-06T14:10:08.181Z,4068
2018-10-06T14:11:08.454Z,5164
2018-10-06T14:12:08.241Z,4912
2018-10-06T14:13:08.249Z,4424
2018-10-06T14:14:08.270Z,3564
2018-10-06T14:15:08.820Z,3504
2018-10-06T14:16:08.579Z,3536
2018-10-06T14:17:08.865Z,3624
2018-10-06T14:18:08.886Z,3724
2018-10-06T14:19:08.756Z,3864
2018-10-06T14:20:08.940Z,3916
2018-10-06T14:21:08.187Z,3996
2018-10-06T14:22:08.724Z,4076
2018-10-06T14:23:08.755Z,4180
2018-10-06T14:24:08.781Z,4264
2018-10-06T14:25:08.550Z,4452
2018-10-06T14:26:08.570Z,4592
2018-10-06T14:27:09.116Z,4416
2018-10-06T14:28:23.536Z,5412
2018-10-06T14:29:08.642Z,5796
2018-10-06T14:30:09.183Z,5320
2018-10-06T14:31:23.874Z,5316
2018-10-06T14:32:08.977Z,4592